createdAt,value
2019-02-15T00:01:53.196Z,5.90
2019-02-15T00:06:46.056Z,5.80
2019-02-15T00:11:39.020Z,5.70
2019-02-15T00:16:31.883Z,5.70
2019-02-15T00:21:30.538Z,5.70
2019-02-15T00:26:23.401Z,5.60
2019-02-15T00:31:19.167Z,5.70
2019-02-15T00:36:12.022Z,5.60
2019-02-15T00:41:04.868Z,5.50
2019-02-15T00:46:09.939Z,5.50
2019-02-15T00:51:10.965Z,5.50
2019-02-15T00:56:23.422Z,5.40
2019-02-15T01:01:33.431Z,5.40
2019-02-15T01:07:04.451Z,5.40
2019-02-15T01:12:04.106Z,5.40
2019-02-15T01:16:57.262Z,5.10
2019-02-15T01:21:50.246Z,5.00
2019-02-15T01:26:49.382Z,5.00
2019-02-15T01:31:56.113Z,5.10
2019-02-15T01:36:57.007Z,5.20
2019-02-15T01:42:09.441Z,5.30
2019-02-15T01:47:09.357Z,5.30
2019-02-15T01:52:02.346Z,5.30
2019-02-15T01:56:55.333Z,5.10
2019-02-15T02:01:48.327Z,5.00
2019-02-15T02:06:41.145Z,4.90
2019-02-15T02:11:33.999Z,4.90
2019-02-15T02:16:26.844Z,4.80
2019-02-15T02:21:19.720Z,4.80
2019-02-15T02:26:12.602Z,4.60
2019-02-15T02:31:05.445Z,4.50
2019-02-15T02:35:58.326Z,4.50
2019-02-15T02:40:51.231Z,4.40
2019-02-15T02:45:44.068Z,4.50
2019-02-15T02:50:36.920Z,4.40
2019-02-15T02:55:29.791Z,4.40
2019-02-15T03:00:22.694Z,4.40
2019-02-15T03:05:15.656Z,4.40
2019-02-15T03:10:08.754Z,4.40
2019-02-15T03:15:01.599Z,4.30
2019-02-15T03:19:54.466Z,4.20
2019-02-15T03:24:48.458Z,4.10
2019-02-15T03:29:41.360Z,4.00
2019-02-15T03:34:36.279Z,3.90
2019-02-15T03:39:54.439Z,3.80
2019-02-15T03:44:47.332Z,3.80
2019-02-15T03:49:40.202Z,3.90
2019-02-15T03:54:33.069Z,3.60
2019-02-15T03:59:25.903Z,3.60
2019-02-15T04:04:18.883Z,3.60
2019-02-15T04:09:11.729Z,3.70
2019-02-15T04:14:04.582Z,3.70
2019-02-15T04:18:57.431Z,3.60
2019-02-15T04:23:50.310Z,3.70
2019-02-15T04:28:43.163Z,3.80
2019-02-15T04:33:36.059Z,3.90
2019-02-15T04:38:28.954Z,3.90
2019-02-15T04:43:21.763Z,3.80
2019-02-15T04:48:14.625Z,3.90
2019-02-15T04:53:07.488Z,4.10
2019-02-15T04:58:00.358Z,4.00
2019-02-15T05:02:53.177Z,4.00
2019-02-15T05:07:46.039Z,4.00
2019-02-15T05:12:38.893Z,4.00
2019-02-15T05:17:31.773Z,3.80
2019-02-15T05:22:24.663Z,3.90
2019-02-15T05:27:17.498Z,3.80
2019-02-15T05:32:10.356Z,3.70
2019-02-15T05:37:03.430Z,3.60
2019-02-15T05:41:56.296Z,3.60
2019-02-15T05:46:49.159Z,3.50
2019-02-15T05:51:42.045Z,3.60
2019-02-15T05:56:34.901Z,3.60
2019-02-15T06:01:28.542Z,3.60
2019-02-15T06:06:21.410Z,3.60
2019-02-15T06:11:14.301Z,3.60
2019-02-15T06:16:09.118Z,3.60
2019-02-15T06:21:03.672Z,3.60
2019-02-15T06:25:56.534Z,3.60
2019-02-15T06:30:49.368Z,3.70
2019-02-15T06:35:42.274Z,3.70
2019-02-15T06:40:35.207Z,3.70
2019-02-15T06:45:28.071Z,3.90
2019-02-15T06:50:20.939Z,4.00
2019-02-15T06:55:13.829Z,4.10
2019-02-15T07:00:26.818Z,4.20
2019-02-15T07:05:25.590Z,4.20
2019-02-15T07:10:18.444Z,4.10
2019-02-15T07:15:11.286Z,4.10
2019-02-15T07:20:05.944Z,4.20
2019-02-15T07:24:58.884Z,4.20
2019-02-15T07:29:51.733Z,4.40
2019-02-15T07:34:44.633Z,4.50
2019-02-15T07:39:37.655Z,4.80
2019-02-15T07:44:30.606Z,5.70
2019-02-15T07:49:26.835Z,7.00
2019-02-15T07:54:18.244Z,7.60
2019-02-15T07:59:11.151Z,7.90
2019-02-15T08:04:04.204Z,8.30
2019-02-15T08:08:57.241Z,8.70
2019-02-15T08:13:50.093Z,8.70
2019-02-15T08:18:42.940Z,8.70
2019-02-15T08:23:35.792Z,8.90
2019-02-15T08:28:28.695Z,9.40
2019-02-15T08:33:21.634Z,9.60
2019-02-15T08:38:14.491Z,9.80
2019-02-15T08:43:07.347Z,9.90
2019-02-15T08:48:00.216Z,9.80
2019-02-15T08:53:14.448Z,10.00
2019-02-15T08:58:07.298Z,10.40
2019-02-15T09:03:00.188Z,10.20
2019-02-15T09:07:53.147Z,10.60
2019-02-15T09:12:46.026Z,10.70
2019-02-15T09:17:38.934Z,10.70
2019-02-15T09:22:31.827Z,11.00
2019-02-15T09:27:41.809Z,10.90
2019-02-15T09:32:34.723Z,11.30
2019-02-15T09:37:27.582Z,11.10
2019-02-15T09:42:20.465Z,11.30
2019-02-15T09:47:13.356Z,11.10
2019-02-15T09:52:06.330Z,10.90
2019-02-15T09:56:59.240Z,11.10
2019-02-15T10:01:52.156Z,10.90
2019-02-15T10:06:45.023Z,11.20
2019-02-15T10:11:37.904Z,11.10
2019-02-15T10:16:31.981Z,11.10
2019-02-15T10:21:24.853Z,11.30
2019-02-15T10:26:17.820Z,11.30
2019-02-15T10:31:10.919Z,11.30
2019-02-15T10:36:03.890Z,11.30
2019-02-15T10:40:56.752Z,11.50
2019-02-15T10:45:49.625Z,11.60
2019-02-15T10:50:42.465Z,11.70
2019-02-15T10:55:38.018Z,11.90
2019-02-15T11:00:30.912Z,11.90
2019-02-15T11:05:23.979Z,11.90
2019-02-15T11:10:17.101Z,11.90
2019-02-15T11:15:11.681Z,12.00
2019-02-15T11:20:05.960Z,12.20
2019-02-15T11:25:00.871Z,12.40
2019-02-15T11:29:53.768Z,12.50
2019-02-15T11:34:47.026Z,12.70
2019-02-15T11:39:40.278Z,12.90
2019-02-15T11:44:33.298Z,13.00
2019-02-15T11:49:26.272Z,13.00
2019-02-15T11:54:23.609Z,13.30
2019-02-15T11:59:13.958Z,13.50
2019-02-15T12:04:06.961Z,13.70
2019-02-15T12:09:00.053Z,13.80
2019-02-15T12:13:52.987Z,14.00
2019-02-15T12:18:45.836Z,14.20
2019-02-15T12:23:38.734Z,14.40
2019-02-15T12:28:31.686Z,14.50
2019-02-15T12:33:24.549Z,14.50
2019-02-15T12:38:17.394Z,14.70
2019-02-15T12:43:10.295Z,14.90
2019-02-15T12:48:03.322Z,15.10
2019-02-15T12:52:56.206Z,15.20
2019-02-15T12:57:49.066Z,15.30
2019-02-15T13:02:41.962Z,15.40
2019-02-15T13:07:34.905Z,15.30
2019-02-15T13:12:27.982Z,15.40
2019-02-15T13:17:24.653Z,15.50
2019-02-15T13:22:16.743Z,15.70
2019-02-15T13:27:09.609Z,15.80
2019-02-15T13:32:02.500Z,15.80
2019-02-15T13:36:55.367Z,15.70
2019-02-15T13:41:48.233Z,15.80
2019-02-15T13:46:41.142Z,15.90
2019-02-15T13:51:34.012Z,15.90
2019-02-15T13:56:26.879Z,16.00
2019-02-15T14:01:20.158Z,16.10
2019-02-15T14:06:13.096Z,16.20
2019-02-15T14:11:06.044Z,16.20
2019-02-15T14:15:59.051Z,16.30
2019-02-15T14:20:52.113Z,16.30
2019-02-15T14:25:45.111Z,16.10
2019-02-15T14:30:38.034Z,16.20
2019-02-15T14:35:30.917Z,16.10
2019-02-15T14:40:23.755Z,16.20
2019-02-15T14:45:16.639Z,16.20
2019-02-15T14:50:09.749Z,16.10
2019-02-15T14:55:05.792Z,16.20
2019-02-15T14:59:58.754Z,16.10
2019-02-15T15:04:51.640Z,16.10
2019-02-15T15:09:44.518Z,16.00
2019-02-15T15:14:37.489Z,16.00
2019-02-15T15:19:30.351Z,15.90
2019-02-15T15:24:23.214Z,15.90
2019-02-15T15:29:16.112Z,15.80
2019-02-15T15:34:09.189Z,15.80
2019-02-15T15:39:02.406Z,15.80
2019-02-15T15:43:55.309Z,15.70
2019-02-15T15:48:48.199Z,15.70
2019-02-15T15:53:41.050Z,15.60
2019-02-15T15:58:33.967Z,15.50
2019-02-15T16:03:26.906Z,15.40
2019-02-15T16:08:20.152Z,15.30
2019-02-15T16:13:13.369Z,15.20
2019-02-15T16:18:06.246Z,15.10
2019-02-15T16:23:00.356Z,15.00
2019-02-15T16:27:53.221Z,14.80
2019-02-15T16:32:46.093Z,14.70
2019-02-15T16:37:39.132Z,14.60
2019-02-15T16:42:32.047Z,14.40
2019-02-15T16:47:24.885Z,14.30
2019-02-15T16:52:17.952Z,14.10
2019-02-15T16:57:10.818Z,14.10
2019-02-15T17:02:03.783Z,14.00
2019-02-15T17:06:56.618Z,13.80
2019-02-15T17:11:49.494Z,13.60
2019-02-15T17:16:42.359Z,13.60
2019-02-15T17:21:35.250Z,13.50
2019-02-15T17:26:28.118Z,13.30
2019-02-15T17:31:25.801Z,13.20
2019-02-15T17:36:28.108Z,13.10
2019-02-15T17:41:22.191Z,13.10
2019-02-15T17:46:15.328Z,12.90
2019-02-15T17:51:08.400Z,12.80
2019-02-15T17:56:01.281Z,12.60
2019-02-15T18:00:54.186Z,12.40
2019-02-15T18:05:52.067Z,12.30
2019-02-15T18:10:44.953Z,12.30
2019-02-15T18:15:37.831Z,12.20
2019-02-15T18:20:30.640Z,12.20
2019-02-15T18:25:23.658Z,12.10
2019-02-15T18:30:16.563Z,12.10
2019-02-15T18:35:09.433Z,12.10
2019-02-15T18:40:02.422Z,11.80
2019-02-15T18:44:55.335Z,11.80
2019-02-15T18:49:48.228Z,11.80
2019-02-15T18:54:41.099Z,11.70
2019-02-15T18:59:33.986Z,11.60
2019-02-15T19:04:26.849Z,11.40
2019-02-15T19:09:19.770Z,11.40
2019-02-15T19:14:12.667Z,11.40
2019-02-15T19:19:05.597Z,11.40
2019-02-15T19:23:58.434Z,11.30
2019-02-15T19:28:52.415Z,11.20
2019-02-15T19:33:45.287Z,11.00
2019-02-15T19:38:38.445Z,10.90
2019-02-15T19:43:36.174Z,10.80
2019-02-15T19:48:29.063Z,10.80
2019-02-15T19:53:21.938Z,10.70
2019-02-15T19:58:14.816Z,10.60
2019-02-15T20:03:07.696Z,10.70
2019-02-15T20:08:00.589Z,10.70
2019-02-15T20:12:53.591Z,10.60
2019-02-15T20:17:46.479Z,10.60
2019-02-15T20:22:39.888Z,10.60
2019-02-15T20:27:33.033Z,10.70
2019-02-15T20:32:25.940Z,10.30
2019-02-15T20:37:18.916Z,10.30
2019-02-15T20:42:11.817Z,10.20
2019-02-15T20:47:07.503Z,10.20
2019-02-15T20:52:01.937Z,10.00
2019-02-15T20:56:55.072Z,10.00
2019-02-15T21:01:48.053Z,9.90
2019-02-15T21:06:41.850Z,9.90
2019-02-15T21:11:36.719Z,9.80
2019-02-15T21:16:36.627Z,9.70
2019-02-15T21:21:29.648Z,9.70
2019-02-15T21:26:22.658Z,9.70
2019-02-15T21:31:17.757Z,9.60
2019-02-15T21:36:14.302Z,9.40
2019-02-15T21:41:08.388Z,9.40
2019-02-15T21:46:01.360Z,9.30
2019-02-15T21:50:54.224Z,9.30
2019-02-15T21:55:49.234Z,9.30
2019-02-15T22:00:42.129Z,9.20
2019-02-15T22:05:35.011Z,9.20
2019-02-15T22:10:28.394Z,9.10
2019-02-15T22:15:24.866Z,9.10
2019-02-15T22:20:26.415Z,9.00
2019-02-15T22:25:15.954Z,8.90
2019-02-15T22:30:11.530Z,8.80
2019-02-15T22:35:05.056Z,8.70
2019-02-15T22:40:49.407Z,8.70
2019-02-15T22:45:44.322Z,8.60
2019-02-15T22:50:38.282Z,8.60
2019-02-15T22:55:31.142Z,8.60
2019-02-15T23:00:39.205Z,8.50
2019-02-15T23:05:44.281Z,8.60
2019-02-15T23:10:39.574Z,8.60
2019-02-15T23:15:37.667Z,8.60
2019-02-15T23:20:44.828Z,8.40
2019-02-15T23:25:39.358Z,8.30
2019-02-15T23:30:40.454Z,8.20
2019-02-15T23:35:34.431Z,8.20
2019-02-15T23:40:31.805Z,8.10
2019-02-15T23:45:28.201Z,8.10
2019-02-15T23:50:22.427Z,8.00
2019-02-15T23:55:15.404Z,8.00
